createdAt,value
2023-03-15T00:00:20.747Z,31.20
2023-03-15T00:01:20.704Z,30.70
2023-03-15T00:02:20.731Z,31.60
2023-03-15T00:03:20.702Z,31.40
2023-03-15T00:04:20.640Z,32.40
2023-03-15T00:05:20.638Z,32.90
2023-03-15T00:06:20.642Z,33.00
2023-03-15T00:07:20.612Z,32.90
2023-03-15T00:08:20.617Z,32.60
2023-03-15T00:09:20.593Z,32.10
2023-03-15T00:10:20.577Z,31.80
2023-03-15T00:11:20.592Z,34.80
2023-03-15T00:12:20.556Z,31.90
2023-03-15T00:13:20.561Z,31.70
2023-03-15T00:14:20.543Z,32.20
2023-03-15T00:15:20.523Z,32.30
2023-03-15T00:16:20.551Z,33.90
2023-03-15T00:17:20.490Z,32.10
2023-03-15T00:18:20.483Z,31.50
2023-03-15T00:19:20.492Z,31.80
2023-03-15T00:20:20.439Z,32.10
2023-03-15T00:21:20.432Z,32.50
2023-03-15T00:22:20.431Z,31.80
2023-03-15T00:23:20.414Z,32.20
2023-03-15T00:24:20.422Z,31.80
2023-03-15T00:25:20.411Z,32.70
2023-03-15T00:26:20.382Z,31.60
2023-03-15T00:27:20.371Z,33.00
2023-03-15T00:28:20.370Z,31.60
2023-03-15T00:29:20.370Z,31.60
2023-03-15T00:30:20.353Z,32.40
2023-03-15T00:31:20.388Z,32.10
2023-03-15T00:32:20.404Z,31.60
2023-03-15T00:33:20.277Z,31.00
2023-03-15T00:34:20.300Z,32.20
2023-03-15T00:35:20.288Z,32.00
2023-03-15T00:36:20.265Z,31.90
2023-03-15T00:37:20.256Z,32.10
2023-03-15T00:38:20.238Z,31.10
2023-03-15T00:39:20.235Z,32.10
2023-03-15T00:40:20.199Z,32.80
2023-03-15T00:41:20.229Z,33.20
2023-03-15T00:42:20.181Z,31.30
2023-03-15T00:43:20.170Z,32.80
2023-03-15T00:44:20.172Z,32.30
2023-03-15T00:45:20.162Z,31.60
2023-03-15T00:46:20.197Z,32.20
2023-03-15T00:47:20.119Z,32.50
2023-03-15T00:48:20.087Z,32.70
2023-03-15T00:49:20.087Z,32.10
2023-03-15T00:50:20.078Z,31.80
2023-03-15T00:51:20.103Z,31.30
2023-03-15T00:52:20.076Z,32.20
2023-03-15T00:53:20.041Z,32.50
2023-03-15T00:54:20.020Z,32.20
2023-03-15T00:55:20.045Z,32.40
2023-03-15T00:56:20.017Z,33.20
2023-03-15T00:57:20.010Z,32.40
2023-03-15T00:58:22.239Z,32.90
2023-03-15T00:59:19.948Z,34.20
2023-03-15T01:00:19.970Z,32.10
2023-03-15T01:01:19.967Z,31.00
2023-03-15T01:02:19.966Z,31.80
2023-03-15T01:03:19.905Z,32.50
2023-03-15T01:04:19.886Z,32.90
2023-03-15T01:05:19.891Z,33.10
2023-03-15T01:06:19.878Z,31.70
2023-03-15T01:07:19.849Z,31.80
2023-03-15T01:08:19.943Z,33.00
2023-03-15T01:09:19.849Z,32.70
2023-03-15T01:10:19.830Z,32.00
2023-03-15T01:11:19.809Z,32.20
2023-03-15T01:12:26.848Z,31.50
2023-03-15T01:13:19.777Z,31.20
2023-03-15T01:14:19.812Z,33.30
2023-03-15T01:15:19.761Z,34.50
2023-03-15T01:16:19.831Z,34.20
2023-03-15T01:17:19.747Z,31.50
2023-03-15T01:18:19.717Z,34.00
2023-03-15T01:19:19.740Z,31.90
2023-03-15T01:20:19.688Z,31.90
2023-03-15T01:21:19.679Z,32.30
2023-03-15T01:22:19.687Z,32.30
2023-03-15T01:23:19.647Z,32.60
2023-03-15T01:24:19.683Z,33.00
2023-03-15T01:25:19.645Z,31.90
2023-03-15T01:26:19.620Z,32.70
2023-03-15T01:27:19.609Z,32.60
2023-03-15T01:28:19.602Z,31.40
2023-03-15T01:29:19.621Z,31.90
2023-03-15T01:30:19.580Z,31.40
2023-03-15T01:31:19.634Z,32.70
2023-03-15T01:32:19.556Z,33.10
2023-03-15T01:33:19.528Z,31.80
2023-03-15T01:34:19.547Z,33.00
2023-03-15T01:35:19.517Z,33.10
2023-03-15T01:36:19.511Z,32.90
2023-03-15T01:37:19.493Z,32.80
2023-03-15T01:38:19.480Z,34.20
2023-03-15T01:39:19.490Z,32.50
2023-03-15T01:40:19.451Z,33.80
2023-03-15T01:41:19.460Z,33.00
2023-03-15T01:42:19.440Z,33.80
2023-03-15T01:43:19.410Z,33.40
2023-03-15T01:44:19.395Z,32.80
2023-03-15T01:45:19.422Z,33.40
2023-03-15T01:46:19.400Z,33.70
2023-03-15T01:47:19.360Z,33.20
2023-03-15T01:48:19.349Z,33.80
2023-03-15T01:49:19.369Z,32.70
2023-03-15T01:50:19.315Z,32.70
2023-03-15T01:51:19.305Z,32.30
2023-03-15T01:52:19.305Z,34.70
2023-03-15T01:53:19.287Z,32.00
2023-03-15T01:54:19.266Z,33.00
2023-03-15T01:55:19.281Z,32.90
2023-03-15T01:56:19.257Z,33.90
2023-03-15T01:57:19.234Z,34.50
2023-03-15T01:58:19.232Z,35.40
2023-03-15T01:59:19.216Z,32.20
2023-03-15T02:00:19.203Z,32.10
2023-03-15T02:01:19.247Z,33.40
2023-03-15T02:02:19.260Z,33.30
2023-03-15T02:03:19.144Z,33.00
2023-03-15T02:04:19.170Z,34.20
2023-03-15T02:05:19.148Z,33.90
2023-03-15T02:06:19.128Z,37.10
2023-03-15T02:07:19.137Z,32.30
2023-03-15T02:08:19.113Z,31.20
2023-03-15T02:09:19.083Z,32.80
2023-03-15T02:10:19.064Z,32.30
2023-03-15T02:11:19.045Z,31.70
2023-03-15T02:12:19.056Z,32.50
2023-03-15T02:13:19.023Z,33.10
2023-03-15T02:14:19.042Z,33.00
2023-03-15T02:15:19.033Z,31.90
2023-03-15T02:16:19.061Z,31.80
2023-03-15T02:17:18.982Z,31.60
2023-03-15T02:18:18.980Z,33.60
2023-03-15T02:19:18.960Z,34.00
2023-03-15T02:20:18.956Z,36.20
2023-03-15T02:21:18.934Z,33.00
2023-03-15T02:22:18.934Z,32.50
2023-03-15T02:23:18.931Z,34.60
2023-03-15T02:24:18.886Z,35.00
2023-03-15T02:25:18.886Z,34.60
2023-03-15T02:26:18.900Z,33.10
2023-03-15T02:27:18.906Z,33.90
2023-03-15T02:28:18.867Z,34.60
2023-03-15T02:29:18.838Z,34.00
2023-03-15T02:30:18.828Z,34.80
2023-03-15T02:31:18.839Z,35.40
2023-03-15T02:32:18.795Z,34.20
2023-03-15T02:33:18.790Z,33.10
2023-03-15T02:34:18.789Z,35.00
2023-03-15T02:35:18.755Z,35.40
2023-03-15T02:36:18.763Z,33.30
2023-03-15T02:37:18.738Z,34.20
2023-03-15T02:38:18.733Z,33.50
2023-03-15T02:39:18.704Z,34.20
2023-03-15T02:40:18.708Z,34.80
2023-03-15T02:41:18.675Z,33.50
2023-03-15T02:42:18.688Z,33.10
2023-03-15T02:43:18.664Z,33.10
2023-03-15T02:44:18.659Z,32.30
2023-03-15T02:45:18.682Z,33.50
2023-03-15T02:46:18.688Z,36.00
2023-03-15T02:47:18.598Z,32.90
2023-03-15T02:48:18.619Z,33.40
2023-03-15T02:49:18.596Z,33.70
2023-03-15T02:50:18.706Z,34.50
2023-03-15T02:51:18.572Z,35.00
2023-03-15T02:52:18.550Z,33.90
2023-03-15T02:53:18.536Z,33.90
2023-03-15T02:54:18.539Z,33.40
2023-03-15T02:55:18.554Z,34.20
2023-03-15T02:56:18.500Z,32.90
2023-03-15T02:57:18.498Z,34.20
2023-03-15T02:58:18.493Z,33.50
2023-03-15T02:59:18.470Z,32.80
2023-03-15T03:00:18.474Z,33.70
2023-03-15T03:01:18.458Z,33.60
2023-03-15T03:02:18.471Z,34.20
2023-03-15T03:03:18.412Z,32.90
2023-03-15T03:04:18.438Z,32.80
2023-03-15T03:05:18.410Z,32.90
2023-03-15T03:06:18.387Z,33.60
2023-03-15T03:07:18.372Z,34.10
2023-03-15T03:08:18.347Z,33.90
2023-03-15T03:09:18.350Z,34.00
2023-03-15T03:10:18.341Z,34.70
2023-03-15T03:11:18.331Z,33.40
2023-03-15T03:12:18.370Z,33.50
2023-03-15T03:13:18.289Z,33.90
2023-03-15T03:14:18.303Z,35.90
2023-03-15T03:15:18.297Z,33.50
2023-03-15T03:16:18.268Z,33.40
2023-03-15T03:17:18.255Z,34.50
2023-03-15T03:18:18.240Z,33.60
2023-03-15T03:19:18.225Z,35.30
2023-03-15T03:20:18.220Z,34.50
2023-03-15T03:21:18.212Z,34.80
2023-03-15T03:22:18.182Z,34.30
2023-03-15T03:23:18.154Z,33.80
2023-03-15T03:24:18.143Z,37.10
2023-03-15T03:25:18.141Z,33.90
2023-03-15T03:26:18.155Z,34.10
2023-03-15T03:27:18.120Z,33.20
2023-03-15T03:28:18.099Z,32.60
2023-03-15T03:29:18.106Z,33.60
2023-03-15T03:30:18.071Z,33.90
2023-03-15T03:31:18.131Z,33.30
2023-03-15T03:32:18.052Z,33.50
2023-03-15T03:33:18.029Z,33.20
2023-03-15T03:34:18.009Z,33.80
2023-03-15T03:35:18.013Z,32.30
2023-03-15T03:36:18.002Z,33.30
2023-03-15T03:37:18.020Z,34.10
2023-03-15T03:38:17.983Z,33.80
2023-03-15T03:39:17.974Z,33.50
2023-03-15T03:40:17.941Z,33.60
2023-03-15T03:41:17.929Z,36.00
2023-03-15T03:42:17.918Z,35.30
2023-03-15T03:43:17.934Z,35.10
2023-03-15T03:44:17.888Z,35.30
2023-03-15T03:45:17.892Z,33.30
2023-03-15T03:46:17.898Z,34.00
2023-03-15T03:47:17.857Z,33.60
2023-03-15T03:48:17.847Z,35.30
2023-03-15T03:49:17.843Z,37.90
2023-03-15T03:50:17.817Z,35.20
2023-03-15T03:51:17.811Z,34.50
2023-03-15T03:52:17.786Z,34.70
2023-03-15T03:53:17.810Z,35.40
2023-03-15T03:54:17.856Z,37.20
2023-03-15T03:55:17.770Z,34.00
2023-03-15T03:56:17.755Z,34.00
2023-03-15T03:57:17.727Z,32.90
2023-03-15T03:58:17.741Z,32.80
2023-03-15T03:59:17.713Z,34.70
2023-03-15T04:00:17.692Z,34.00
2023-03-15T04:01:17.698Z,33.80
2023-03-15T04:02:17.701Z,33.70
2023-03-15T04:03:17.655Z,33.90
2023-03-15T04:04:17.688Z,33.30
2023-03-15T04:05:17.625Z,33.50
2023-03-15T04:06:17.629Z,33.50
2023-03-15T04:07:17.619Z,35.70
2023-03-15T04:08:17.594Z,34.30
2023-03-15T04:09:17.618Z,34.10
2023-03-15T04:10:17.598Z,35.90
2023-03-15T04:11:17.643Z,34.20
2023-03-15T04:12:17.613Z,35.00
2023-03-15T04:13:17.538Z,37.90
2023-03-15T04:14:17.531Z,34.90
2023-03-15T04:15:17.530Z,33.90
2023-03-15T04:16:17.547Z,34.90
2023-03-15T04:17:17.495Z,34.60
2023-03-15T04:18:17.487Z,35.10
2023-03-15T04:19:17.472Z,34.40
2023-03-15T04:20:17.480Z,35.10
2023-03-15T04:21:17.433Z,34.00
2023-03-15T04:22:17.427Z,35.00
2023-03-15T04:23:17.416Z,34.40
2023-03-15T04:24:17.403Z,34.90
2023-03-15T04:25:17.396Z,32.30
2023-03-15T04:26:17.379Z,32.70
2023-03-15T04:27:17.378Z,33.10
2023-03-15T04:28:17.360Z,34.80
2023-03-15T04:29:17.336Z,34.00
2023-03-15T04:30:17.330Z,33.30
2023-03-15T04:31:17.370Z,33.20
2023-03-15T04:32:17.307Z,35.20
2023-03-15T04:33:17.287Z,34.50
2023-03-15T04:34:17.285Z,33.90
2023-03-15T04:35:17.281Z,33.10
2023-03-15T04:36:17.265Z,34.40
2023-03-15T04:37:17.238Z,32.70
2023-03-15T04:38:17.243Z,33.80
2023-03-15T04:39:17.218Z,33.50
2023-03-15T04:40:17.223Z,34.40
2023-03-15T04:41:17.224Z,34.40
2023-03-15T04:42:17.183Z,35.00
2023-03-15T04:43:17.168Z,34.80
2023-03-15T04:44:17.147Z,34.10
2023-03-15T04:45:17.141Z,33.70
2023-03-15T04:46:17.259Z,33.80
2023-03-15T04:47:17.129Z,35.30
2023-03-15T04:48:17.115Z,34.50
2023-03-15T04:49:17.113Z,34.10
2023-03-15T04:50:17.100Z,34.30
2023-03-15T04:51:17.082Z,33.90
2023-03-15T04:52:17.064Z,34.50
2023-03-15T04:53:17.086Z,34.00
2023-03-15T04:54:17.048Z,33.60
2023-03-15T04:55:17.025Z,33.40
2023-03-15T04:56:17.011Z,33.50
2023-03-15T04:57:16.993Z,33.00
2023-03-15T04:58:16.998Z,33.90
2023-03-15T04:59:17.025Z,33.00
2023-03-15T05:00:16.964Z,33.10
2023-03-15T05:01:17.032Z,33.90
2023-03-15T05:02:17.010Z,34.00
2023-03-15T05:03:16.908Z,35.60
2023-03-15T05:04:16.904Z,34.20
2023-03-15T05:05:16.906Z,34.20
2023-03-15T05:06:16.894Z,32.80
2023-03-15T05:07:16.892Z,33.70
2023-03-15T05:08:16.864Z,33.20
2023-03-15T05:09:16.850Z,33.80
2023-03-15T05:10:16.845Z,33.50
2023-03-15T05:11:16.831Z,33.50
2023-03-15T05:12:16.796Z,34.40
2023-03-15T05:13:16.804Z,32.80
2023-03-15T05:14:16.795Z,32.80
2023-03-15T05:15:16.807Z,32.80
2023-03-15T05:16:16.815Z,33.20
2023-03-15T05:17:16.767Z,33.90
2023-03-15T05:18:16.727Z,33.70
2023-03-15T05:19:16.752Z,33.60
2023-03-15T05:20:16.731Z,33.20
2023-03-15T05:21:16.705Z,34.00
2023-03-15T05:22:16.695Z,35.00
2023-03-15T05:23:16.692Z,33.90
2023-03-15T05:24:16.649Z,34.30
2023-03-15T05:25:16.664Z,32.90
2023-03-15T05:26:16.672Z,36.10
2023-03-15T05:27:16.653Z,33.30
2023-03-15T05:28:16.621Z,33.70
2023-03-15T05:29:16.630Z,33.20
2023-03-15T05:30:16.581Z,33.60
2023-03-15T05:31:16.609Z,35.20
2023-03-15T05:32:16.548Z,33.40
2023-03-15T05:33:16.592Z,35.80
2023-03-15T05:34:16.570Z,33.60
2023-03-15T05:35:16.527Z,32.80
2023-03-15T05:36:16.497Z,33.20
2023-03-15T05:37:16.491Z,33.60
2023-03-15T05:38:16.505Z,35.50
2023-03-15T05:39:16.467Z,33.70
2023-03-15T05:40:16.464Z,33.90
2023-03-15T05:41:16.451Z,34.50
2023-03-15T05:42:16.438Z,35.00
2023-03-15T05:43:16.434Z,34.80
2023-03-15T05:44:16.414Z,33.90
2023-03-15T05:45:16.409Z,33.30
2023-03-15T05:46:16.476Z,33.70
2023-03-15T05:47:16.367Z,34.20
2023-03-15T05:48:16.353Z,34.10
2023-03-15T05:49:16.369Z,35.70
2023-03-15T05:50:16.334Z,33.80
2023-03-15T05:51:16.330Z,34.40
2023-03-15T05:52:16.304Z,36.70
2023-03-15T05:53:16.302Z,33.50
2023-03-15T05:54:16.274Z,34.40
2023-03-15T05:55:16.275Z,32.30
2023-03-15T05:56:16.257Z,35.20
2023-03-15T05:57:16.236Z,34.60
2023-03-15T05:58:16.252Z,34.10
2023-03-15T05:59:16.210Z,36.20
2023-03-15T06:00:16.250Z,33.60
2023-03-15T06:01:16.192Z,35.60
2023-03-15T06:02:16.176Z,34.30
2023-03-15T06:03:16.218Z,36.00
2023-03-15T06:04:16.198Z,34.10
2023-03-15T06:05:16.156Z,34.80
2023-03-15T06:06:16.132Z,34.60
2023-03-15T06:07:16.131Z,34.10
2023-03-15T06:08:16.123Z,35.80
2023-03-15T06:09:16.104Z,33.60
2023-03-15T06:10:16.089Z,33.60
2023-03-15T06:11:16.085Z,33.60
2023-03-15T06:12:16.073Z,33.50
2023-03-15T06:13:18.181Z,32.90
2023-03-15T06:14:16.043Z,33.70
2023-03-15T06:15:16.013Z,32.50
2023-03-15T06:16:16.057Z,32.90
2023-03-15T06:17:16.005Z,32.80
2023-03-15T06:18:15.970Z,33.00
2023-03-15T06:19:15.991Z,34.00
2023-03-15T06:20:15.961Z,31.90
2023-03-15T06:21:16.096Z,33.40
2023-03-15T06:22:15.938Z,32.50
2023-03-15T06:23:15.919Z,31.90
2023-03-15T06:24:15.910Z,32.30
2023-03-15T06:25:15.913Z,31.70
2023-03-15T06:26:15.892Z,31.30
2023-03-15T06:27:15.881Z,32.60
2023-03-15T06:28:15.873Z,34.00
2023-03-15T06:29:15.839Z,31.60
2023-03-15T06:30:17.095Z,31.30
2023-03-15T06:31:15.903Z,31.40
2023-03-15T06:32:15.855Z,30.90
2023-03-15T06:33:15.803Z,32.30
2023-03-15T06:34:15.785Z,32.50
2023-03-15T06:35:15.775Z,32.50
2023-03-15T06:36:15.761Z,32.40
2023-03-15T06:37:22.759Z,32.40
2023-03-15T06:38:16.731Z,31.70
2023-03-15T06:39:15.722Z,33.20
2023-03-15T06:40:15.722Z,31.60
2023-03-15T06:41:15.705Z,33.00
2023-03-15T06:42:15.677Z,31.70
2023-03-15T06:43:15.681Z,31.90
2023-03-15T06:44:15.663Z,32.40
2023-03-15T06:45:15.672Z,33.00
2023-03-15T06:46:15.679Z,32.50
2023-03-15T06:47:15.632Z,32.60
2023-03-15T06:48:15.612Z,31.50
2023-03-15T06:49:15.588Z,31.60
2023-03-15T06:50:15.585Z,31.50
2023-03-15T06:51:15.579Z,32.30
2023-03-15T06:52:15.548Z,30.50
2023-03-15T06:53:15.558Z,31.30
2023-03-15T06:54:15.530Z,31.70
2023-03-15T06:55:15.521Z,31.70
2023-03-15T06:56:15.506Z,31.30
2023-03-15T06:57:15.506Z,32.90
2023-03-15T06:58:15.490Z,33.30
2023-03-15T06:59:15.461Z,30.90
2023-03-15T07:00:15.462Z,31.50
2023-03-15T07:01:15.468Z,31.80
2023-03-15T07:02:15.538Z,30.40
2023-03-15T07:03:15.411Z,31.00
2023-03-15T07:04:15.414Z,31.30
2023-03-15T07:05:15.379Z,31.70
2023-03-15T07:06:15.391Z,30.90
2023-03-15T07:07:15.417Z,30.20
2023-03-15T07:08:15.357Z,32.60
2023-03-15T07:09:15.362Z,30.50
2023-03-15T07:10:15.337Z,32.00
2023-03-15T07:11:15.322Z,33.50
2023-03-15T07:13:25.430Z,31.80
2023-03-15T07:14:25.394Z,31.70
2023-03-15T07:15:25.374Z,34.50
2023-03-15T07:16:25.364Z,31.60
2023-03-15T07:17:25.355Z,31.20
2023-03-15T07:18:25.368Z,31.20
2023-03-15T07:19:25.348Z,30.90
2023-03-15T07:20:25.338Z,30.40
2023-03-15T07:21:25.307Z,31.10
2023-03-15T07:22:25.307Z,32.60
2023-03-15T07:23:25.306Z,30.70
2023-03-15T07:24:25.285Z,32.50
2023-03-15T07:25:25.260Z,31.50
2023-03-15T07:26:25.301Z,31.60
2023-03-15T07:27:25.225Z,31.70
2023-03-15T07:28:25.221Z,32.30
2023-03-15T07:29:25.198Z,32.00
2023-03-15T07:30:25.255Z,32.50
2023-03-15T07:31:25.198Z,33.20
2023-03-15T07:32:25.295Z,31.40
2023-03-15T07:33:25.230Z,32.00
2023-03-15T07:34:25.165Z,31.40
2023-03-15T07:35:25.211Z,30.60
2023-03-15T07:36:25.126Z,31.70
2023-03-15T07:37:25.118Z,30.50
2023-03-15T07:38:25.117Z,31.70
2023-03-15T07:39:25.104Z,30.30
2023-03-15T07:40:25.071Z,31.40
2023-03-15T07:41:25.094Z,31.50
2023-03-15T07:42:25.066Z,30.80
2023-03-15T07:43:25.072Z,31.40
2023-03-15T07:44:25.044Z,31.20
2023-03-15T07:45:24.991Z,31.20
2023-03-15T07:46:25.038Z,29.90
2023-03-15T07:47:24.982Z,30.70
2023-03-15T07:48:24.960Z,30.60
2023-03-15T07:49:24.948Z,31.00
2023-03-15T07:50:24.930Z,29.90
2023-03-15T07:51:24.960Z,30.60
2023-03-15T07:52:24.938Z,30.50
2023-03-15T07:53:24.890Z,32.10
2023-03-15T07:54:24.884Z,30.40
2023-03-15T07:55:24.860Z,30.30
2023-03-15T07:56:24.873Z,30.00
2023-03-15T07:57:25.838Z,29.50
2023-03-15T07:58:24.873Z,29.50
2023-03-15T07:59:24.819Z,32.10
2023-03-15T08:00:24.799Z,30.00
2023-03-15T08:01:24.803Z,29.00
2023-03-15T08:02:24.808Z,29.90
2023-03-15T08:03:24.866Z,32.10
2023-03-15T08:04:24.779Z,31.10
2023-03-15T08:05:26.166Z,30.90
2023-03-15T08:06:24.734Z,28.90
2023-03-15T08:07:24.737Z,29.10
2023-03-15T08:08:24.698Z,30.10
2023-03-15T08:09:24.702Z,29.70
2023-03-15T08:10:24.689Z,30.20
2023-03-15T08:11:24.665Z,32.60
2023-03-15T08:12:24.648Z,29.80
2023-03-15T08:13:24.628Z,29.90
2023-03-15T08:14:24.661Z,28.70
2023-03-15T08:15:24.622Z,29.60
2023-03-15T08:16:24.660Z,30.40
2023-03-15T08:17:24.641Z,28.70
2023-03-15T08:18:24.578Z,29.40
2023-03-15T08:19:24.552Z,28.90
2023-03-15T08:20:24.553Z,29.40
2023-03-15T08:21:24.519Z,30.20
2023-03-15T08:22:24.531Z,29.20
2023-03-15T08:23:24.549Z,28.60
2023-03-15T08:24:24.517Z,29.50
2023-03-15T08:25:24.489Z,29.10
2023-03-15T08:26:24.512Z,29.90
2023-03-15T08:27:24.442Z,29.70
2023-03-15T08:28:24.568Z,30.30
2023-03-15T08:29:24.444Z,30.20
2023-03-15T08:30:24.424Z,28.90
2023-03-15T08:31:24.428Z,28.90
2023-03-15T08:32:24.480Z,30.10
2023-03-15T08:33:24.386Z,28.90
2023-03-15T08:34:24.374Z,28.90
2023-03-15T08:35:24.421Z,28.40
2023-03-15T08:36:24.357Z,31.20
2023-03-15T08:37:24.357Z,30.10
2023-03-15T08:38:24.331Z,29.00
2023-03-15T08:39:24.302Z,29.60
2023-03-15T08:40:24.291Z,30.60
2023-03-15T08:41:24.273Z,30.40
2023-03-15T08:42:24.296Z,29.60
2023-03-15T08:43:24.271Z,28.60
2023-03-15T08:44:24.247Z,29.50
2023-03-15T08:45:24.217Z,30.30
2023-03-15T08:46:24.271Z,29.30
2023-03-15T08:47:24.184Z,28.70
2023-03-15T08:48:24.190Z,27.80
2023-03-15T08:49:24.200Z,28.80
2023-03-15T08:50:24.156Z,29.50
2023-03-15T08:51:24.279Z,28.10
2023-03-15T08:52:24.125Z,29.60
2023-03-15T08:53:24.136Z,28.70
2023-03-15T08:54:24.131Z,29.70
2023-03-15T08:55:24.134Z,30.50
2023-03-15T08:56:24.088Z,29.00
2023-03-15T08:57:24.088Z,29.20
2023-03-15T08:58:24.055Z,29.40
2023-03-15T08:59:31.698Z,29.40
2023-03-15T09:00:25.036Z,29.20
2023-03-15T09:01:24.029Z,28.40
2023-03-15T09:02:24.043Z,29.10
2023-03-15T09:03:24.032Z,28.90
2023-03-15T09:04:24.014Z,28.80
2023-03-15T09:05:23.987Z,30.10
2023-03-15T09:06:23.955Z,28.60
2023-03-15T09:07:23.915Z,29.30
2023-03-15T09:08:23.933Z,30.60
2023-03-15T09:09:23.916Z,29.00
2023-03-15T09:10:23.936Z,28.70
2023-03-15T09:11:23.880Z,28.40
2023-03-15T09:12:23.864Z,29.10
2023-03-15T09:13:23.841Z,30.40
2023-03-15T09:14:23.860Z,29.60
2023-03-15T09:15:23.842Z,29.80
2023-03-15T09:16:23.829Z,29.80
2023-03-15T09:17:23.852Z,28.00
2023-03-15T09:18:23.809Z,29.50
2023-03-15T09:19:23.766Z,30.10
2023-03-15T09:20:23.757Z,29.00
2023-03-15T09:21:23.755Z,27.60
2023-03-15T09:22:37.861Z,28.60
2023-03-15T09:23:24.785Z,28.40
2023-03-15T09:24:23.731Z,28.30
2023-03-15T09:25:23.707Z,29.20
2023-03-15T09:26:23.736Z,29.60
2023-03-15T09:27:23.698Z,28.30
2023-03-15T09:28:23.651Z,28.00
2023-03-15T09:29:23.664Z,27.50
2023-03-15T09:30:23.652Z,28.80
2023-03-15T09:31:23.710Z,28.60
2023-03-15T09:32:23.678Z,28.50
2023-03-15T09:33:23.628Z,29.90
2023-03-15T09:34:25.377Z,28.60
2023-03-15T09:35:23.568Z,29.10
2023-03-15T09:36:23.567Z,30.90
2023-03-15T09:37:23.534Z,30.40
2023-03-15T09:38:23.521Z,28.30
2023-03-15T09:39:23.506Z,28.10
2023-03-15T09:40:23.590Z,30.10
2023-03-15T09:41:23.480Z,29.60
2023-03-15T09:42:23.492Z,30.50
2023-03-15T09:43:23.465Z,29.00
2023-03-15T09:44:23.477Z,29.00
2023-03-15T09:45:23.460Z,28.00
2023-03-15T09:46:23.496Z,27.60
2023-03-15T09:47:23.401Z,29.90
2023-03-15T09:48:23.392Z,29.30
2023-03-15T09:49:23.375Z,28.00
2023-03-15T09:50:23.416Z,29.30
2023-03-15T09:51:23.397Z,28.50
2023-03-15T09:52:23.407Z,29.70
2023-03-15T09:53:23.350Z,29.50
2023-03-15T09:54:23.351Z,28.20
2023-03-15T09:55:23.305Z,27.90
2023-03-15T09:56:23.398Z,28.40
2023-03-15T09:57:23.272Z,30.20
2023-03-15T09:58:23.340Z,28.90
2023-03-15T09:59:23.266Z,28.50
2023-03-15T10:00:23.298Z,28.60
2023-03-15T10:01:23.321Z,30.20
2023-03-15T10:02:23.241Z,29.30
2023-03-15T10:03:23.306Z,29.50
2023-03-15T10:04:23.212Z,28.50
2023-03-15T10:05:23.195Z,28.00
2023-03-15T10:06:23.163Z,29.10
2023-03-15T10:07:23.163Z,30.70
2023-03-15T10:08:23.178Z,30.10
2023-03-15T10:09:23.160Z,28.20
2023-03-15T10:10:23.153Z,30.40
2023-03-15T10:11:23.129Z,29.30
2023-03-15T10:12:23.118Z,28.30
2023-03-15T10:13:23.095Z,28.60
2023-03-15T10:14:23.074Z,29.90
2023-03-15T10:15:23.057Z,29.60
2023-03-15T10:16:23.130Z,28.40
2023-03-15T10:17:23.036Z,29.90
2023-03-15T10:18:23.039Z,29.60
2023-03-15T10:19:23.013Z,27.50
2023-03-15T10:20:22.996Z,27.60
2023-03-15T10:21:22.985Z,28.40
2023-03-15T10:22:22.987Z,28.70
2023-03-15T10:23:22.955Z,30.20
2023-03-15T10:24:22.939Z,28.90
2023-03-15T10:25:22.978Z,28.10
2023-03-15T10:26:22.924Z,28.00
2023-03-15T10:27:22.924Z,28.30
2023-03-15T10:28:22.920Z,27.80
2023-03-15T10:29:22.921Z,29.40
2023-03-15T10:30:22.861Z,29.30
2023-03-15T10:31:32.930Z,28.70
2023-03-15T10:32:23.867Z,28.20
2023-03-15T10:33:22.830Z,28.10
2023-03-15T10:34:22.827Z,27.60
2023-03-15T10:35:22.780Z,27.40
2023-03-15T10:36:22.844Z,27.60
2023-03-15T10:37:22.815Z,28.60
2023-03-15T10:38:22.793Z,27.60
2023-03-15T10:39:22.773Z,26.80
2023-03-15T10:40:22.734Z,28.30
2023-03-15T10:41:28.792Z,27.60
2023-03-15T10:42:23.712Z,27.30
2023-03-15T10:43:22.689Z,27.00
2023-03-15T10:44:22.698Z,27.00
2023-03-15T10:45:22.684Z,29.80
2023-03-15T10:46:22.715Z,27.20
2023-03-15T10:47:24.529Z,28.10
2023-03-15T10:48:22.631Z,30.50
2023-03-15T10:49:22.620Z,27.30
2023-03-15T10:50:22.637Z,27.40
2023-03-15T10:51:22.592Z,26.10
2023-03-15T10:52:22.589Z,25.40
2023-03-15T10:53:22.555Z,27.10
2023-03-15T10:54:22.551Z,28.10
2023-03-15T10:55:22.519Z,26.80
2023-03-15T10:56:22.537Z,27.20
2023-03-15T10:57:22.511Z,26.30
2023-03-15T10:58:24.780Z,25.40
2023-03-15T10:59:22.470Z,26.10
2023-03-15T11:00:22.468Z,26.40
2023-03-15T11:01:22.494Z,26.40
2023-03-15T11:02:22.472Z,26.20
2023-03-15T11:03:22.470Z,25.40
2023-03-15T11:04:22.407Z,25.90
2023-03-15T11:05:22.418Z,26.10
2023-03-15T11:06:22.387Z,25.50
2023-03-15T11:07:22.377Z,26.70
2023-03-15T11:08:22.358Z,26.90
2023-03-15T11:09:22.351Z,26.50
2023-03-15T11:10:22.333Z,25.40
2023-03-15T11:11:22.308Z,25.30
2023-03-15T11:12:22.347Z,25.30
2023-03-15T11:13:22.297Z,28.80
2023-03-15T11:14:22.301Z,26.70
2023-03-15T11:15:22.280Z,25.80
2023-03-15T11:16:22.365Z,25.60
2023-03-15T11:17:22.264Z,25.40
2023-03-15T11:18:22.252Z,29.20
2023-03-15T11:19:22.232Z,26.00
2023-03-15T11:20:22.202Z,26.50
2023-03-15T11:21:22.180Z,26.10
2023-03-15T11:22:22.204Z,25.50
2023-03-15T11:23:22.179Z,27.60
2023-03-15T11:24:22.197Z,27.20
2023-03-15T11:25:24.833Z,26.40
2023-03-15T11:26:31.846Z,26.80
2023-03-15T11:27:23.148Z,28.70
2023-03-15T11:28:22.151Z,27.30
2023-03-15T11:29:22.114Z,26.30
2023-03-15T11:30:22.067Z,26.10
2023-03-15T11:31:22.143Z,25.80
2023-03-15T11:32:22.100Z,25.80
2023-03-15T11:33:22.062Z,26.60
2023-03-15T11:34:22.029Z,24.70
2023-03-15T11:35:22.188Z,27.60
2023-03-15T11:36:22.030Z,25.80
2023-03-15T11:37:22.005Z,24.80
2023-03-15T11:38:21.986Z,26.40
2023-03-15T11:39:21.972Z,24.90
2023-03-15T11:40:21.948Z,26.40
2023-03-15T11:41:21.961Z,26.50
2023-03-15T11:42:21.988Z,25.50
2023-03-15T11:43:21.926Z,25.40
2023-03-15T11:44:21.923Z,23.90
2023-03-15T11:45:21.954Z,28.10
2023-03-15T11:46:21.874Z,25.40
2023-03-15T11:47:21.863Z,24.80
2023-03-15T11:48:21.855Z,23.90
2023-03-15T11:49:21.833Z,25.10
2023-03-15T11:50:21.830Z,25.10
2023-03-15T11:51:21.835Z,25.50
2023-03-15T11:52:21.795Z,24.60
2023-03-15T11:53:21.792Z,25.30
2023-03-15T11:54:21.774Z,23.40
2023-03-15T11:55:21.783Z,25.60
2023-03-15T11:56:21.763Z,25.20
2023-03-15T11:57:21.740Z,25.30
2023-03-15T11:58:21.739Z,25.80
2023-03-15T11:59:21.733Z,26.00
2023-03-15T12:00:21.720Z,27.00
2023-03-15T12:01:21.691Z,24.80
2023-03-15T12:02:21.729Z,25.30
2023-03-15T12:03:21.757Z,25.60
2023-03-15T12:04:21.649Z,26.90
2023-03-15T12:05:21.636Z,27.10
2023-03-15T12:06:21.625Z,27.00
2023-03-15T12:07:21.622Z,27.80
2023-03-15T12:08:21.603Z,27.60
2023-03-15T12:09:23.312Z,24.10
2023-03-15T12:10:21.551Z,24.90
2023-03-15T12:11:21.578Z,26.30
2023-03-15T12:12:21.566Z,23.10
2023-03-15T12:13:21.524Z,24.00
2023-03-15T12:14:21.527Z,23.80
2023-03-15T12:15:21.530Z,24.10
2023-03-15T12:16:21.520Z,24.00
2023-03-15T12:17:21.465Z,23.80
2023-03-15T12:18:21.464Z,23.80
2023-03-15T12:19:21.458Z,24.60
2023-03-15T12:20:21.440Z,25.10
2023-03-15T12:21:21.428Z,23.20
2023-03-15T12:22:21.412Z,25.00
2023-03-15T12:23:21.400Z,22.90
2023-03-15T12:24:21.384Z,25.10
2023-03-15T12:25:21.374Z,23.10
2023-03-15T12:26:21.355Z,24.40
2023-03-15T12:27:21.342Z,24.30
2023-03-15T12:28:21.320Z,24.50
2023-03-15T12:29:21.342Z,24.70
2023-03-15T12:30:21.285Z,22.70
2023-03-15T12:31:21.314Z,23.90
2023-03-15T12:32:21.276Z,25.80
2023-03-15T12:33:21.250Z,24.10
2023-03-15T12:34:21.251Z,24.70
2023-03-15T12:35:21.240Z,23.20
2023-03-15T12:36:21.244Z,24.80
2023-03-15T12:37:21.207Z,23.70
2023-03-15T12:38:21.200Z,24.00
2023-03-15T12:39:21.196Z,24.50
2023-03-15T12:40:21.192Z,24.60
2023-03-15T12:41:21.155Z,24.30
2023-03-15T12:42:21.153Z,23.40
2023-03-15T12:43:21.125Z,25.70
2023-03-15T12:44:21.131Z,24.10
2023-03-15T12:45:21.149Z,23.80
2023-03-15T12:46:21.154Z,24.60
2023-03-15T12:47:21.075Z,23.90
2023-03-15T12:48:21.080Z,23.00
2023-03-15T12:49:21.071Z,23.00
2023-03-15T12:50:21.035Z,23.00
2023-03-15T12:51:21.017Z,23.40
2023-03-15T12:52:20.996Z,22.70
2023-03-15T12:53:21.007Z,23.20